sensor_id;sensor_type;location;lat;lon;timestamp;P1;durP1;ratioP1;P2;durP2;ratioP2
40781;SDS011;26493;51.938;7.626;2022-10-17T00:00:23;23.77;;;14.52;;
40781;SDS011;26493;51.938;7.626;2022-10-17T00:02:49;21.80;;;15.10;;
40781;SDS011;26493;51.938;7.626;2022-10-17T00:05:15;20.52;;;14.13;;
40781;SDS011;26493;51.938;7.626;2022-10-17T00:07:41;24.50;;;15.55;;
40781;SDS011;26493;51.938;7.626;2022-10-17T00:10:07;20.10;;;14.77;;
40781;SDS011;26493;51.938;7.626;2022-10-17T00:12:33;23.42;;;15.10;;
40781;SDS011;26493;51.938;7.626;2022-10-17T00:15:01;26.63;;;15.13;;
40781;SDS011;26493;51.938;7.626;2022-10-17T00:17:27;23.05;;;15.23;;
40781;SDS011;26493;51.938;7.626;2022-10-17T00:19:53;22.75;;;15.57;;
40781;SDS011;26493;51.938;7.626;2022-10-17T00:22:19;23.63;;;15.95;;
40781;SDS011;26493;51.938;7.626;2022-10-17T00:24:45;23.65;;;16.23;;
40781;SDS011;26493;51.938;7.626;2022-10-17T00:27:11;22.48;;;15.70;;
40781;SDS011;26493;51.938;7.626;2022-10-17T00:29:37;25.38;;;15.07;;
40781;SDS011;26493;51.938;7.626;2022-10-17T00:32:03;22.55;;;15.57;;
40781;SDS011;26493;51.938;7.626;2022-10-17T00:34:29;21.67;;;14.75;;
40781;SDS011;26493;51.938;7.626;2022-10-17T00:36:55;21.40;;;15.30;;
40781;SDS011;26493;51.938;7.626;2022-10-17T00:39:21;25.05;;;16.02;;
40781;SDS011;26493;51.938;7.626;2022-10-17T00:41:47;21.00;;;14.95;;
40781;SDS011;26493;51.938;7.626;2022-10-17T00:46:55;22.55;;;14.88;;
40781;SDS011;26493;51.938;7.626;2022-10-17T00:49:21;23.38;;;15.70;;
40781;SDS011;26493;51.938;7.626;2022-10-17T00:51:56;22.25;;;15.32;;
40781;SDS011;26493;51.938;7.626;2022-10-17T00:54:26;22.50;;;15.77;;
40781;SDS011;26493;51.938;7.626;2022-10-17T00:56:54;22.85;;;15.95;;
40781;SDS011;26493;51.938;7.626;2022-10-17T00:59:20;23.50;;;15.35;;
40781;SDS011;26493;51.938;7.626;2022-10-17T01:01:55;24.85;;;16.52;;
40781;SDS011;26493;51.938;7.626;2022-10-17T01:04:24;24.57;;;15.90;;
40781;SDS011;26493;51.938;7.626;2022-10-17T01:06:50;23.20;;;16.50;;
40781;SDS011;26493;51.938;7.626;2022-10-17T01:09:16;24.52;;;15.68;;
40781;SDS011;26493;51.938;7.626;2022-10-17T01:16:57;23.45;;;15.98;;
40781;SDS011;26493;51.938;7.626;2022-10-17T01:22:11;21.60;;;16.20;;
40781;SDS011;26493;51.938;7.626;2022-10-17T01:24:44;23.08;;;16.65;;
40781;SDS011;26493;51.938;7.626;2022-10-17T01:32:39;22.48;;;16.48;;
40781;SDS011;26493;51.938;7.626;2022-10-17T01:35:27;25.63;;;17.35;;
40781;SDS011;26493;51.938;7.626;2022-10-17T01:38:00;23.30;;;16.33;;
40781;SDS011;26493;51.938;7.626;2022-10-17T01:40:33;24.50;;;16.55;;
40781;SDS011;26493;51.938;7.626;2022-10-17T01:43:10;23.15;;;16.60;;
40781;SDS011;26493;51.938;7.626;2022-10-17T01:45:41;23.08;;;16.00;;
40781;SDS011;26493;51.938;7.626;2022-10-17T01:48:16;24.25;;;17.30;;
40781;SDS011;26493;51.938;7.626;2022-10-17T01:50:45;24.25;;;16.55;;
40781;SDS011;26493;51.938;7.626;2022-10-17T01:53:14;22.77;;;15.50;;
40781;SDS011;26493;51.938;7.626;2022-10-17T01:55:43;22.77;;;15.88;;
40781;SDS011;26493;51.938;7.626;2022-10-17T01:58:15;22.33;;;16.07;;
40781;SDS011;26493;51.938;7.626;2022-10-17T02:00:43;23.80;;;15.73;;
40781;SDS011;26493;51.938;7.626;2022-10-17T02:03:11;22.52;;;16.38;;
40781;SDS011;26493;51.938;7.626;2022-10-17T02:05:39;21.95;;;15.68;;
40781;SDS011;26493;51.938;7.626;2022-10-17T02:08:05;23.10;;;16.17;;
40781;SDS011;26493;51.938;7.626;2022-10-17T02:26:11;25.13;;;16.35;;
40781;SDS011;26493;51.938;7.626;2022-10-17T02:28:43;22.27;;;16.38;;
40781;SDS011;26493;51.938;7.626;2022-10-17T02:31:19;25.05;;;16.75;;
40781;SDS011;26493;51.938;7.626;2022-10-17T02:33:48;22.83;;;17.17;;
40781;SDS011;26493;51.938;7.626;2022-10-17T02:36:18;22.35;;;16.58;;
40781;SDS011;26493;51.938;7.626;2022-10-17T02:38:45;23.60;;;17.10;;
40781;SDS011;26493;51.938;7.626;2022-10-17T02:41:12;23.58;;;16.70;;
40781;SDS011;26493;51.938;7.626;2022-10-17T02:43:40;24.83;;;16.20;;
40781;SDS011;26493;51.938;7.626;2022-10-17T02:46:09;23.95;;;16.42;;
40781;SDS011;26493;51.938;7.626;2022-10-17T02:48:36;25.85;;;16.10;;
40781;SDS011;26493;51.938;7.626;2022-10-17T02:51:05;21.67;;;16.47;;
40781;SDS011;26493;51.938;7.626;2022-10-17T02:53:43;24.55;;;16.50;;
40781;SDS011;26493;51.938;7.626;2022-10-17T02:56:13;22.20;;;16.35;;
40781;SDS011;26493;51.938;7.626;2022-10-17T02:58:41;25.40;;;16.55;;
40781;SDS011;26493;51.938;7.626;2022-10-17T03:01:07;21.52;;;16.52;;
40781;SDS011;26493;51.938;7.626;2022-10-17T03:03:33;22.52;;;16.02;;
40781;SDS011;26493;51.938;7.626;2022-10-17T03:05:59;26.52;;;17.27;;
40781;SDS011;26493;51.938;7.626;2022-10-17T03:08:25;22.92;;;16.25;;
40781;SDS011;26493;51.938;7.626;2022-10-17T03:10:52;24.92;;;16.30;;
40781;SDS011;26493;51.938;7.626;2022-10-17T03:13:18;26.90;;;17.08;;
40781;SDS011;26493;51.938;7.626;2022-10-17T03:15:44;23.95;;;15.88;;
40781;SDS011;26493;51.938;7.626;2022-10-17T03:18:10;26.30;;;16.58;;
40781;SDS011;26493;51.938;7.626;2022-10-17T03:20:36;23.88;;;16.08;;
40781;SDS011;26493;51.938;7.626;2022-10-17T03:23:02;23.55;;;16.20;;
40781;SDS011;26493;51.938;7.626;2022-10-17T03:25:28;22.42;;;15.63;;
40781;SDS011;26493;51.938;7.626;2022-10-17T03:27:56;22.02;;;15.75;;
40781;SDS011;26493;51.938;7.626;2022-10-17T03:30:22;23.50;;;16.98;;
40781;SDS011;26493;51.938;7.626;2022-10-17T03:32:48;21.90;;;16.13;;
40781;SDS011;26493;51.938;7.626;2022-10-17T03:35:14;23.05;;;16.45;;
40781;SDS011;26493;51.938;7.626;2022-10-17T03:37:40;21.98;;;16.65;;
40781;SDS011;26493;51.938;7.626;2022-10-17T03:40:06;21.25;;;15.80;;
40781;SDS011;26493;51.938;7.626;2022-10-17T03:42:32;24.10;;;16.70;;
40781;SDS011;26493;51.938;7.626;2022-10-17T03:44:58;24.35;;;17.45;;
40781;SDS011;26493;51.938;7.626;2022-10-17T03:47:24;24.23;;;17.10;;
40781;SDS011;26493;51.938;7.626;2022-10-17T03:49:50;24.00;;;16.77;;
40781;SDS011;26493;51.938;7.626;2022-10-17T03:52:17;24.52;;;17.20;;
40781;SDS011;26493;51.938;7.626;2022-10-17T03:54:43;23.67;;;16.95;;
40781;SDS011;26493;51.938;7.626;2022-10-17T03:57:09;23.55;;;15.93;;
40781;SDS011;26493;51.938;7.626;2022-10-17T03:59:35;23.65;;;16.52;;
40781;SDS011;26493;51.938;7.626;2022-10-17T04:02:01;23.98;;;16.67;;
40781;SDS011;26493;51.938;7.626;2022-10-17T04:04:27;25.15;;;17.33;;
40781;SDS011;26493;51.938;7.626;2022-10-17T04:06:53;22.48;;;16.05;;
40781;SDS011;26493;51.938;7.626;2022-10-17T04:09:19;22.50;;;16.85;;
40781;SDS011;26493;51.938;7.626;2022-10-17T04:11:45;22.55;;;16.55;;
40781;SDS011;26493;51.938;7.626;2022-10-17T04:14:11;22.35;;;17.30;;
40781;SDS011;26493;51.938;7.626;2022-10-17T04:16:38;24.85;;;17.67;;
40781;SDS011;26493;51.938;7.626;2022-10-17T04:19:04;24.02;;;17.50;;
40781;SDS011;26493;51.938;7.626;2022-10-17T04:21:30;26.50;;;16.95;;
40781;SDS011;26493;51.938;7.626;2022-10-17T04:23:57;25.60;;;17.33;;
40781;SDS011;26493;51.938;7.626;2022-10-17T04:26:24;24.85;;;16.42;;
40781;SDS011;26493;51.938;7.626;2022-10-17T04:28:50;24.17;;;16.50;;
40781;SDS011;26493;51.938;7.626;2022-10-17T04:31:16;25.02;;;17.60;;
40781;SDS011;26493;51.938;7.626;2022-10-17T04:33:42;24.15;;;17.17;;
40781;SDS011;26493;51.938;7.626;2022-10-17T04:36:12;22.83;;;17.70;;
40781;SDS011;26493;51.938;7.626;2022-10-17T04:38:38;22.02;;;16.45;;
40781;SDS011;26493;51.938;7.626;2022-10-17T04:41:05;23.27;;;17.38;;
40781;SDS011;26493;51.938;7.626;2022-10-17T04:43:32;23.02;;;17.08;;
40781;SDS011;26493;51.938;7.626;2022-10-17T04:45:59;26.05;;;17.33;;
40781;SDS011;26493;51.938;7.626;2022-10-17T04:48:25;23.33;;;17.30;;
40781;SDS011;26493;51.938;7.626;2022-10-17T04:50:54;23.95;;;16.92;;
40781;SDS011;26493;51.938;7.626;2022-10-17T04:53:21;21.63;;;16.55;;
40781;SDS011;26493;51.938;7.626;2022-10-17T04:55:47;22.65;;;17.02;;
40781;SDS011;26493;51.938;7.626;2022-10-17T04:58:13;23.75;;;18.55;;
40781;SDS011;26493;51.938;7.626;2022-10-17T05:00:40;24.42;;;16.90;;
40781;SDS011;26493;51.938;7.626;2022-10-17T05:03:06;21.95;;;16.92;;
40781;SDS011;26493;51.938;7.626;2022-10-17T05:05:32;24.23;;;17.85;;
40781;SDS011;26493;51.938;7.626;2022-10-17T05:07:58;23.08;;;18.25;;
40781;SDS011;26493;51.938;7.626;2022-10-17T05:10:24;23.80;;;17.88;;
40781;SDS011;26493;51.938;7.626;2022-10-17T05:12:50;24.65;;;16.77;;
40781;SDS011;26493;51.938;7.626;2022-10-17T05:15:16;23.05;;;17.27;;
40781;SDS011;26493;51.938;7.626;2022-10-17T05:17:42;22.83;;;18.27;;
40781;SDS011;26493;51.938;7.626;2022-10-17T05:20:08;30.67;;;17.67;;
40781;SDS011;26493;51.938;7.626;2022-10-17T05:22:34;22.30;;;17.70;;
40781;SDS011;26493;51.938;7.626;2022-10-17T05:25:00;23.35;;;17.48;;
40781;SDS011;26493;51.938;7.626;2022-10-17T05:27:26;23.98;;;18.63;;
40781;SDS011;26493;51.938;7.626;2022-10-17T05:29:52;23.60;;;17.15;;
40781;SDS011;26493;51.938;7.626;2022-10-17T05:32:18;27.17;;;17.65;;
40781;SDS011;26493;51.938;7.626;2022-10-17T05:34:44;23.42;;;18.05;;
40781;SDS011;26493;51.938;7.626;2022-10-17T05:37:10;27.83;;;20.88;;
40781;SDS011;26493;51.938;7.626;2022-10-17T05:39:36;23.67;;;18.30;;
40781;SDS011;26493;51.938;7.626;2022-10-17T05:42:02;23.98;;;17.58;;
40781;SDS011;26493;51.938;7.626;2022-10-17T05:44:28;24.35;;;17.65;;
40781;SDS011;26493;51.938;7.626;2022-10-17T05:46:54;23.02;;;17.98;;
40781;SDS011;26493;51.938;7.626;2022-10-17T05:49:20;25.35;;;18.55;;
40781;SDS011;26493;51.938;7.626;2022-10-17T05:51:46;25.75;;;18.55;;
40781;SDS011;26493;51.938;7.626;2022-10-17T05:54:12;23.77;;;18.02;;
40781;SDS011;26493;51.938;7.626;2022-10-17T05:56:38;21.90;;;17.45;;
40781;SDS011;26493;51.938;7.626;2022-10-17T05:59:04;23.63;;;16.90;;
40781;SDS011;26493;51.938;7.626;2022-10-17T06:01:30;30.92;;;16.90;;
40781;SDS011;26493;51.938;7.626;2022-10-17T06:03:56;22.48;;;16.30;;
40781;SDS011;26493;51.938;7.626;2022-10-17T06:06:22;22.50;;;15.77;;
40781;SDS011;26493;51.938;7.626;2022-10-17T06:08:48;23.35;;;15.77;;
40781;SDS011;26493;51.938;7.626;2022-10-17T06:11:14;22.95;;;15.70;;
40781;SDS011;26493;51.938;7.626;2022-10-17T06:13:40;21.80;;;15.05;;
40781;SDS011;26493;51.938;7.626;2022-10-17T06:16:07;20.90;;;14.88;;
40781;SDS011;26493;51.938;7.626;2022-10-17T06:18:33;21.95;;;14.60;;
40781;SDS011;26493;51.938;7.626;2022-10-17T06:21:09;21.00;;;13.90;;
40781;SDS011;26493;51.938;7.626;2022-10-17T06:23:35;23.38;;;14.80;;
40781;SDS011;26493;51.938;7.626;2022-10-17T06:26:02;22.20;;;15.65;;
40781;SDS011;26493;51.938;7.626;2022-10-17T06:28:29;26.88;;;15.68;;
40781;SDS011;26493;51.938;7.626;2022-10-17T06:30:55;21.10;;;15.25;;
40781;SDS011;26493;51.938;7.626;2022-10-17T06:33:21;24.48;;;14.43;;
40781;SDS011;26493;51.938;7.626;2022-10-17T06:35:54;21.02;;;14.20;;
40781;SDS011;26493;51.938;7.626;2022-10-17T06:38:20;21.50;;;14.43;;
40781;SDS011;26493;51.938;7.626;2022-10-17T06:40:46;20.65;;;13.55;;
40781;SDS011;26493;51.938;7.626;2022-10-17T06:43:13;20.90;;;13.90;;
40781;SDS011;26493;51.938;7.626;2022-10-17T06:45:39;18.88;;;13.63;;
40781;SDS011;26493;51.938;7.626;2022-10-17T06:48:05;22.02;;;13.45;;
40781;SDS011;26493;51.938;7.626;2022-10-17T06:50:31;21.98;;;13.65;;
40781;SDS011;26493;51.938;7.626;2022-10-17T06:52:57;20.65;;;13.82;;
40781;SDS011;26493;51.938;7.626;2022-10-17T06:55:23;21.38;;;12.82;;
40781;SDS011;26493;51.938;7.626;2022-10-17T06:57:49;21.50;;;13.20;;
40781;SDS011;26493;51.938;7.626;2022-10-17T07:00:16;19.67;;;13.63;;
40781;SDS011;26493;51.938;7.626;2022-10-17T07:02:42;20.30;;;13.07;;
40781;SDS011;26493;51.938;7.626;2022-10-17T07:05:08;20.10;;;12.40;;
40781;SDS011;26493;51.938;7.626;2022-10-17T07:07:34;19.35;;;12.77;;
40781;SDS011;26493;51.938;7.626;2022-10-17T07:10:00;19.65;;;13.07;;
40781;SDS011;26493;51.938;7.626;2022-10-17T07:12:28;19.70;;;13.05;;
40781;SDS011;26493;51.938;7.626;2022-10-17T07:14:54;23.25;;;12.85;;
40781;SDS011;26493;51.938;7.626;2022-10-17T07:17:20;18.75;;;12.20;;
40781;SDS011;26493;51.938;7.626;2022-10-17T07:19:46;20.08;;;12.75;;
40781;SDS011;26493;51.938;7.626;2022-10-17T07:22:12;19.90;;;12.23;;
40781;SDS011;26493;51.938;7.626;2022-10-17T07:24:38;21.30;;;12.90;;
40781;SDS011;26493;51.938;7.626;2022-10-17T07:27:04;20.60;;;12.63;;
40781;SDS011;26493;51.938;7.626;2022-10-17T07:29:30;18.33;;;12.00;;
40781;SDS011;26493;51.938;7.626;2022-10-17T07:31:56;19.58;;;13.10;;
40781;SDS011;26493;51.938;7.626;2022-10-17T07:34:22;19.50;;;11.35;;
40781;SDS011;26493;51.938;7.626;2022-10-17T07:39:17;17.45;;;11.57;;
40781;SDS011;26493;51.938;7.626;2022-10-17T07:41:43;18.33;;;11.70;;
40781;SDS011;26493;51.938;7.626;2022-10-17T07:44:09;17.58;;;11.77;;
40781;SDS011;26493;51.938;7.626;2022-10-17T07:46:35;18.27;;;11.73;;
40781;SDS011;26493;51.938;7.626;2022-10-17T07:49:01;23.88;;;12.30;;
40781;SDS011;26493;51.938;7.626;2022-10-17T07:51:27;18.73;;;11.25;;
40781;SDS011;26493;51.938;7.626;2022-10-17T07:53:54;19.10;;;11.50;;
40781;SDS011;26493;51.938;7.626;2022-10-17T07:56:20;18.90;;;10.75;;
40781;SDS011;26493;51.938;7.626;2022-10-17T08:01:14;21.27;;;11.40;;
40781;SDS011;26493;51.938;7.626;2022-10-17T08:03:42;19.88;;;11.27;;
40781;SDS011;26493;51.938;7.626;2022-10-17T08:06:08;20.48;;;11.68;;
40781;SDS011;26493;51.938;7.626;2022-10-17T08:08:34;22.60;;;11.95;;
40781;SDS011;26493;51.938;7.626;2022-10-17T08:11:01;18.48;;;11.20;;
40781;SDS011;26493;51.938;7.626;2022-10-17T08:13:28;18.40;;;11.27;;
40781;SDS011;26493;51.938;7.626;2022-10-17T08:15:57;20.25;;;11.45;;
40781;SDS011;26493;51.938;7.626;2022-10-17T08:18:23;18.67;;;11.90;;
40781;SDS011;26493;51.938;7.626;2022-10-17T08:20:49;20.02;;;12.30;;
40781;SDS011;26493;51.938;7.626;2022-10-17T08:23:15;17.65;;;11.20;;
40781;SDS011;26493;51.938;7.626;2022-10-17T08:25:41;18.40;;;10.98;;
40781;SDS011;26493;51.938;7.626;2022-10-17T08:28:07;19.88;;;11.13;;
40781;SDS011;26493;51.938;7.626;2022-10-17T08:30:33;19.35;;;11.48;;
40781;SDS011;26493;51.938;7.626;2022-10-17T08:32:59;18.58;;;10.40;;
40781;SDS011;26493;51.938;7.626;2022-10-17T08:35:25;17.83;;;10.93;;
40781;SDS011;26493;51.938;7.626;2022-10-17T08:37:52;20.52;;;10.35;;
40781;SDS011;26493;51.938;7.626;2022-10-17T08:40:19;18.38;;;10.25;;
40781;SDS011;26493;51.938;7.626;2022-10-17T08:48:16;16.77;;;10.00;;
40781;SDS011;26493;51.938;7.626;2022-10-17T08:50:51;16.95;;;10.55;;
40781;SDS011;26493;51.938;7.626;2022-10-17T08:55:53;20.05;;;10.52;;
40781;SDS011;26493;51.938;7.626;2022-10-17T09:01:32;16.48;;;10.25;;
40781;SDS011;26493;51.938;7.626;2022-10-17T09:06:38;16.85;;;9.90;;
40781;SDS011;26493;51.938;7.626;2022-10-17T09:14:29;19.15;;;10.05;;
40781;SDS011;26493;51.938;7.626;2022-10-17T09:19:38;20.15;;;10.30;;
40781;SDS011;26493;51.938;7.626;2022-10-17T09:22:07;21.10;;;10.52;;
40781;SDS011;26493;51.938;7.626;2022-10-17T09:27:40;20.20;;;10.52;;
40781;SDS011;26493;51.938;7.626;2022-10-17T09:30:21;17.70;;;10.02;;
40781;SDS011;26493;51.938;7.626;2022-10-17T09:32:45;18.35;;;10.35;;
40781;SDS011;26493;51.938;7.626;2022-10-17T09:35:15;20.90;;;9.63;;
40781;SDS011;26493;51.938;7.626;2022-10-17T09:37:41;16.13;;;9.48;;
40781;SDS011;26493;51.938;7.626;2022-10-17T09:40:11;16.95;;;10.38;;
40781;SDS011;26493;51.938;7.626;2022-10-17T09:42:38;17.73;;;10.05;;
40781;SDS011;26493;51.938;7.626;2022-10-17T09:45:20;17.60;;;10.32;;
40781;SDS011;26493;51.938;7.626;2022-10-17T09:50:32;16.58;;;10.48;;
40781;SDS011;26493;51.938;7.626;2022-10-17T09:53:05;19.75;;;10.50;;
40781;SDS011;26493;51.938;7.626;2022-10-17T09:55:48;16.60;;;9.77;;
40781;SDS011;26493;51.938;7.626;2022-10-17T09:58:15;19.50;;;10.60;;
40781;SDS011;26493;51.938;7.626;2022-10-17T10:00:42;21.60;;;10.80;;
40781;SDS011;26493;51.938;7.626;2022-10-17T10:05:37;17.25;;;9.63;;
40781;SDS011;26493;51.938;7.626;2022-10-17T10:08:04;19.80;;;10.10;;
40781;SDS011;26493;51.938;7.626;2022-10-17T10:10:31;19.42;;;10.57;;
40781;SDS011;26493;51.938;7.626;2022-10-17T10:13:05;15.43;;;9.57;;
40781;SDS011;26493;51.938;7.626;2022-10-17T10:15:33;18.05;;;10.75;;
40781;SDS011;26493;51.938;7.626;2022-10-17T10:18:01;20.08;;;10.82;;
40781;SDS011;26493;51.938;7.626;2022-10-17T10:25:31;19.63;;;10.55;;
40781;SDS011;26493;51.938;7.626;2022-10-17T10:27:57;18.55;;;9.85;;
40781;SDS011;26493;51.938;7.626;2022-10-17T10:30:27;17.67;;;9.23;;
40781;SDS011;26493;51.938;7.626;2022-10-17T10:32:55;17.40;;;9.57;;
40781;SDS011;26493;51.938;7.626;2022-10-17T10:35:22;15.85;;;9.30;;
40781;SDS011;26493;51.938;7.626;2022-10-17T10:37:50;17.30;;;9.40;;
40781;SDS011;26493;51.938;7.626;2022-10-17T10:43:04;17.08;;;9.35;;
40781;SDS011;26493;51.938;7.626;2022-10-17T10:48:01;21.83;;;9.73;;
40781;SDS011;26493;51.938;7.626;2022-10-17T10:50:29;16.60;;;9.30;;
40781;SDS011;26493;51.938;7.626;2022-10-17T10:55:47;21.20;;;9.02;;
40781;SDS011;26493;51.938;7.626;2022-10-17T11:01:01;18.80;;;9.20;;
40781;SDS011;26493;51.938;7.626;2022-10-17T11:03:30;17.27;;;9.32;;
40781;SDS011;26493;51.938;7.626;2022-10-17T11:05:59;19.30;;;9.35;;
40781;SDS011;26493;51.938;7.626;2022-10-17T11:08:33;17.15;;;9.15;;
40781;SDS011;26493;51.938;7.626;2022-10-17T11:13:27;17.27;;;9.75;;
40781;SDS011;26493;51.938;7.626;2022-10-17T11:16:13;18.20;;;9.38;;
40781;SDS011;26493;51.938;7.626;2022-10-17T11:21:19;17.42;;;9.52;;
40781;SDS011;26493;51.938;7.626;2022-10-17T11:26:21;18.48;;;9.90;;
40781;SDS011;26493;51.938;7.626;2022-10-17T11:28:54;19.27;;;9.90;;
40781;SDS011;26493;51.938;7.626;2022-10-17T11:31:21;18.00;;;9.50;;
40781;SDS011;26493;51.938;7.626;2022-10-17T11:33:49;24.05;;;11.35;;
40781;SDS011;26493;51.938;7.626;2022-10-17T11:36:18;18.50;;;10.40;;
40781;SDS011;26493;51.938;7.626;2022-10-17T11:41:14;20.33;;;10.98;;
40781;SDS011;26493;51.938;7.626;2022-10-17T11:46:13;25.20;;;10.52;;
40781;SDS011;26493;51.938;7.626;2022-10-17T11:51:13;16.52;;;10.00;;
40781;SDS011;26493;51.938;7.626;2022-10-17T11:56:05;17.95;;;10.40;;
40781;SDS011;26493;51.938;7.626;2022-10-17T11:58:45;17.80;;;9.68;;
40781;SDS011;26493;51.938;7.626;2022-10-17T12:01:37;21.40;;;10.77;;
40781;SDS011;26493;51.938;7.626;2022-10-17T12:04:03;19.92;;;10.88;;
40781;SDS011;26493;51.938;7.626;2022-10-17T12:09:17;18.85;;;10.25;;
40781;SDS011;26493;51.938;7.626;2022-10-17T12:11:48;20.60;;;10.00;;
40781;SDS011;26493;51.938;7.626;2022-10-17T12:14:34;19.98;;;10.55;;
40781;SDS011;26493;51.938;7.626;2022-10-17T12:17:01;19.15;;;10.35;;
40781;SDS011;26493;51.938;7.626;2022-10-17T12:19:35;18.35;;;10.00;;
40781;SDS011;26493;51.938;7.626;2022-10-17T12:22:17;22.23;;;9.73;;
40781;SDS011;26493;51.938;7.626;2022-10-17T12:24:54;17.58;;;9.20;;
40781;SDS011;26493;51.938;7.626;2022-10-17T12:27:22;18.50;;;9.65;;
40781;SDS011;26493;51.938;7.626;2022-10-17T12:29:48;19.35;;;9.90;;
40781;SDS011;26493;51.938;7.626;2022-10-17T12:32:14;20.30;;;10.95;;
40781;SDS011;26493;51.938;7.626;2022-10-17T12:34:50;24.70;;;10.73;;
40781;SDS011;26493;51.938;7.626;2022-10-17T12:37:37;18.63;;;10.82;;
40781;SDS011;26493;51.938;7.626;2022-10-17T12:40:02;16.50;;;9.65;;
40781;SDS011;26493;51.938;7.626;2022-10-17T12:42:30;18.67;;;10.30;;
40781;SDS011;26493;51.938;7.626;2022-10-17T12:44:56;16.80;;;10.30;;
40781;SDS011;26493;51.938;7.626;2022-10-17T12:47:43;17.42;;;10.73;;
40781;SDS011;26493;51.938;7.626;2022-10-17T12:52:57;17.52;;;11.02;;
40781;SDS011;26493;51.938;7.626;2022-10-17T12:55:25;18.77;;;10.25;;
40781;SDS011;26493;51.938;7.626;2022-10-17T12:58:05;17.75;;;9.95;;
40781;SDS011;26493;51.938;7.626;2022-10-17T13:00:43;20.02;;;10.63;;
40781;SDS011;26493;51.938;7.626;2022-10-17T13:03:14;19.27;;;10.93;;
40781;SDS011;26493;51.938;7.626;2022-10-17T13:05:44;18.02;;;10.48;;
40781;SDS011;26493;51.938;7.626;2022-10-17T13:08:16;18.13;;;11.07;;
40781;SDS011;26493;51.938;7.626;2022-10-17T13:10:44;18.20;;;11.63;;
40781;SDS011;26493;51.938;7.626;2022-10-17T13:15:53;20.55;;;12.80;;
40781;SDS011;26493;51.938;7.626;2022-10-17T13:18:20;21.23;;;12.55;;
40781;SDS011;26493;51.938;7.626;2022-10-17T13:23:27;20.45;;;13.20;;
40781;SDS011;26493;51.938;7.626;2022-10-17T13:26:01;25.42;;;17.77;;
40781;SDS011;26493;51.938;7.626;2022-10-17T13:28:27;22.00;;;15.68;;
40781;SDS011;26493;51.938;7.626;2022-10-17T13:30:53;19.90;;;15.25;;
40781;SDS011;26493;51.938;7.626;2022-10-17T13:33:54;21.67;;;15.48;;
40781;SDS011;26493;51.938;7.626;2022-10-17T13:36:13;20.00;;;15.65;;
40781;SDS011;26493;51.938;7.626;2022-10-17T13:38:40;22.25;;;15.90;;
40781;SDS011;26493;51.938;7.626;2022-10-17T13:41:09;22.13;;;15.60;;
40781;SDS011;26493;51.938;7.626;2022-10-17T13:43:36;23.48;;;16.75;;
40781;SDS011;26493;51.938;7.626;2022-10-17T13:46:02;20.40;;;15.95;;
40781;SDS011;26493;51.938;7.626;2022-10-17T13:48:30;20.88;;;15.05;;
40781;SDS011;26493;51.938;7.626;2022-10-17T13:50:58;21.30;;;15.13;;
40781;SDS011;26493;51.938;7.626;2022-10-17T13:56:04;22.00;;;16.48;;
40781;SDS011;26493;51.938;7.626;2022-10-17T13:58:31;19.75;;;15.10;;
40781;SDS011;26493;51.938;7.626;2022-10-17T14:01:04;19.27;;;14.63;;
40781;SDS011;26493;51.938;7.626;2022-10-17T14:03:30;21.02;;;15.45;;
40781;SDS011;26493;51.938;7.626;2022-10-17T14:06:16;21.17;;;14.98;;
40781;SDS011;26493;51.938;7.626;2022-10-17T14:08:53;19.73;;;15.25;;
40781;SDS011;26493;51.938;7.626;2022-10-17T14:13:55;23.20;;;16.50;;
40781;SDS011;26493;51.938;7.626;2022-10-17T14:16:22;19.73;;;15.80;;
40781;SDS011;26493;51.938;7.626;2022-10-17T14:18:49;20.95;;;15.55;;
40781;SDS011;26493;51.938;7.626;2022-10-17T14:21:23;23.23;;;16.05;;
40781;SDS011;26493;51.938;7.626;2022-10-17T14:23:50;22.70;;;16.58;;
40781;SDS011;26493;51.938;7.626;2022-10-17T14:26:17;25.05;;;16.60;;
40781;SDS011;26493;51.938;7.626;2022-10-17T14:31:12;24.38;;;16.52;;
40781;SDS011;26493;51.938;7.626;2022-10-17T14:33:44;19.52;;;15.90;;
40781;SDS011;26493;51.938;7.626;2022-10-17T14:36:11;23.48;;;17.05;;
40781;SDS011;26493;51.938;7.626;2022-10-17T14:38:37;21.17;;;15.35;;
40781;SDS011;26493;51.938;7.626;2022-10-17T14:41:22;19.92;;;15.10;;
40781;SDS011;26493;51.938;7.626;2022-10-17T14:44:07;22.27;;;15.40;;
40781;SDS011;26493;51.938;7.626;2022-10-17T14:46:42;19.48;;;15.20;;
40781;SDS011;26493;51.938;7.626;2022-10-17T14:49:15;21.25;;;15.63;;
40781;SDS011;26493;51.938;7.626;2022-10-17T14:54:27;19.13;;;15.30;;
40781;SDS011;26493;51.938;7.626;2022-10-17T14:56:54;19.52;;;14.35;;
40781;SDS011;26493;51.938;7.626;2022-10-17T14:59:20;21.67;;;14.45;;
40781;SDS011;26493;51.938;7.626;2022-10-17T15:01:49;23.88;;;14.73;;
40781;SDS011;26493;51.938;7.626;2022-10-17T15:04:15;22.85;;;14.43;;
40781;SDS011;26493;51.938;7.626;2022-10-17T15:06:41;19.42;;;12.80;;
40781;SDS011;26493;51.938;7.626;2022-10-17T15:09:08;19.63;;;12.77;;
40781;SDS011;26493;51.938;7.626;2022-10-17T15:11:35;21.02;;;12.85;;
40781;SDS011;26493;51.938;7.626;2022-10-17T15:14:01;30.17;;;12.43;;
40781;SDS011;26493;51.938;7.626;2022-10-17T15:16:29;18.88;;;12.85;;
40781;SDS011;26493;51.938;7.626;2022-10-17T15:18:56;22.08;;;12.27;;
40781;SDS011;26493;51.938;7.626;2022-10-17T15:21:22;21.05;;;11.82;;
40781;SDS011;26493;51.938;7.626;2022-10-17T15:23:49;20.50;;;12.35;;
40781;SDS011;26493;51.938;7.626;2022-10-17T15:26:17;22.02;;;12.93;;
40781;SDS011;26493;51.938;7.626;2022-10-17T15:28:43;20.27;;;12.80;;
40781;SDS011;26493;51.938;7.626;2022-10-17T15:31:10;22.02;;;12.18;;
40781;SDS011;26493;51.938;7.626;2022-10-17T15:33:36;20.17;;;12.95;;
40781;SDS011;26493;51.938;7.626;2022-10-17T15:36:02;21.83;;;12.93;;
40781;SDS011;26493;51.938;7.626;2022-10-17T15:38:29;20.10;;;13.63;;
40781;SDS011;26493;51.938;7.626;2022-10-17T15:40:55;22.17;;;12.48;;
40781;SDS011;26493;51.938;7.626;2022-10-17T15:43:21;19.98;;;12.60;;
40781;SDS011;26493;51.938;7.626;2022-10-17T15:45:47;20.95;;;12.93;;
40781;SDS011;26493;51.938;7.626;2022-10-17T15:48:16;17.98;;;11.57;;
40781;SDS011;26493;51.938;7.626;2022-10-17T15:50:43;23.33;;;12.13;;
40781;SDS011;26493;51.938;7.626;2022-10-17T15:53:12;18.98;;;13.00;;
40781;SDS011;26493;51.938;7.626;2022-10-17T15:55:38;20.52;;;11.98;;
40781;SDS011;26493;51.938;7.626;2022-10-17T15:58:05;22.55;;;12.50;;
40781;SDS011;26493;51.938;7.626;2022-10-17T16:00:31;19.63;;;11.85;;
40781;SDS011;26493;51.938;7.626;2022-10-17T16:02:57;20.85;;;11.93;;
40781;SDS011;26493;51.938;7.626;2022-10-17T16:05:23;20.10;;;11.63;;
40781;SDS011;26493;51.938;7.626;2022-10-17T16:07:50;20.17;;;11.75;;
40781;SDS011;26493;51.938;7.626;2022-10-17T16:10:17;20.77;;;11.05;;
40781;SDS011;26493;51.938;7.626;2022-10-17T16:12:43;20.85;;;10.95;;
40781;SDS011;26493;51.938;7.626;2022-10-17T16:15:14;19.02;;;11.63;;
40781;SDS011;26493;51.938;7.626;2022-10-17T16:17:40;17.40;;;11.40;;
40781;SDS011;26493;51.938;7.626;2022-10-17T16:20:08;19.10;;;11.48;;
40781;SDS011;26493;51.938;7.626;2022-10-17T16:22:34;20.27;;;11.40;;
40781;SDS011;26493;51.938;7.626;2022-10-17T16:25:05;19.67;;;11.63;;
40781;SDS011;26493;51.938;7.626;2022-10-17T16:27:34;20.95;;;11.65;;
40781;SDS011;26493;51.938;7.626;2022-10-17T16:30:01;18.65;;;12.35;;